createdAt,value
2017-12-26T00:02:27.238Z,85.40
2017-12-26T00:04:54.899Z,84.85
2017-12-26T00:07:22.667Z,85.08
2017-12-26T00:09:50.350Z,84.85
2017-12-26T00:12:18.045Z,84.74
2017-12-26T00:14:45.809Z,85.63
2017-12-26T00:17:13.586Z,85.36
2017-12-26T00:19:41.261Z,84.54
2017-12-26T00:22:09.062Z,84.82
2017-12-26T00:24:36.884Z,85.10
2017-12-26T00:27:04.642Z,85.25
2017-12-26T00:29:32.324Z,85.72
2017-12-26T00:32:00.073Z,85.77
2017-12-26T00:34:27.842Z,85.95
2017-12-26T00:36:55.521Z,84.90
2017-12-26T00:39:23.272Z,84.95
2017-12-26T00:41:51.724Z,86.49
2017-12-26T00:44:19.461Z,85.74
2017-12-26T00:46:48.210Z,84.97
2017-12-26T00:49:16.011Z,84.81
2017-12-26T00:51:43.682Z,84.90
2017-12-26T00:54:11.518Z,84.89
2017-12-26T00:56:39.229Z,84.13
2017-12-26T00:59:07.651Z,85.38
2017-12-26T01:01:35.380Z,84.71
2017-12-26T01:04:03.125Z,84.49
2017-12-26T01:06:31.919Z,84.78
2017-12-26T01:08:59.597Z,85.11
2017-12-26T01:11:28.101Z,84.42
2017-12-26T01:13:56.547Z,84.99
2017-12-26T01:16:25.450Z,84.65
2017-12-26T01:18:57.180Z,84.96
2017-12-26T01:21:24.921Z,85.65
2017-12-26T01:23:53.408Z,84.91
2017-12-26T01:26:21.160Z,85.02
2017-12-26T01:28:48.879Z,84.69
2017-12-26T01:31:16.608Z,84.89
2017-12-26T01:33:44.283Z,87.11
2017-12-26T01:36:15.371Z,86.20
2017-12-26T01:38:44.359Z,85.89
2017-12-26T01:41:14.697Z,86.87
2017-12-26T01:43:43.133Z,87.13
2017-12-26T01:46:23.804Z,85.45
2017-12-26T01:48:51.567Z,84.96
2017-12-26T01:51:19.492Z,83.77
2017-12-26T01:53:48.455Z,83.72
2017-12-26T01:56:17.444Z,83.54
2017-12-26T01:58:46.760Z,83.35
2017-12-26T02:01:17.288Z,83.61
2017-12-26T02:03:45.792Z,85.67
2017-12-26T02:08:48.325Z,84.94
2017-12-26T02:11:19.179Z,85.32
2017-12-26T02:13:49.541Z,86.15
2017-12-26T02:16:18.395Z,85.61
2017-12-26T02:18:47.929Z,85.17
2017-12-26T02:21:15.637Z,85.35
2017-12-26T02:23:45.763Z,86.35
2017-12-26T02:26:14.317Z,85.63
2017-12-26T02:28:45.714Z,85.99
2017-12-26T02:31:14.672Z,85.68
2017-12-26T02:33:43.697Z,85.14
2017-12-26T02:36:11.411Z,85.38
2017-12-26T02:38:39.789Z,85.13
2017-12-26T02:41:13.955Z,83.98
2017-12-26T02:43:41.622Z,82.81
2017-12-26T02:46:11.615Z,83.12
2017-12-26T02:48:48.618Z,82.80
2017-12-26T02:51:17.026Z,83.46
2017-12-26T02:53:45.669Z,84.79
2017-12-26T02:56:14.300Z,84.21
2017-12-26T02:58:43.086Z,84.50
2017-12-26T03:03:56.828Z,88.20
2017-12-26T03:06:26.446Z,87.61
2017-12-26T03:09:06.738Z,86.31
2017-12-26T03:11:38.601Z,87.29
2017-12-26T03:14:13.248Z,87.36
2017-12-26T03:16:50.762Z,86.59
2017-12-26T03:19:26.280Z,87.77
2017-12-26T03:22:04.027Z,87.58
2017-12-26T03:24:31.752Z,87.21
2017-12-26T03:27:01.246Z,88.45
2017-12-26T03:29:33.272Z,88.52
2017-12-26T03:32:02.085Z,89.68
2017-12-26T03:35:50.253Z,89.67
2017-12-26T03:38:17.966Z,88.60
2017-12-26T03:40:45.800Z,89.22
2017-12-26T03:43:13.507Z,90.33
2017-12-26T03:45:46.091Z,90.99
2017-12-26T03:48:13.815Z,90.53
2017-12-26T03:50:42.439Z,91.35
2017-12-26T03:53:10.254Z,90.30
2017-12-26T03:55:39.604Z,90.80
2017-12-26T03:58:09.625Z,90.70
2017-12-26T04:00:39.657Z,91.77
2017-12-26T04:03:08.238Z,91.24
2017-12-26T04:05:39.009Z,90.81
2017-12-26T04:08:09.023Z,90.51
2017-12-26T04:10:37.348Z,90.78
2017-12-26T04:13:05.027Z,91.00
2017-12-26T04:15:33.537Z,90.41
2017-12-26T04:18:01.246Z,89.77
2017-12-26T04:20:28.997Z,89.56
2017-12-26T04:22:56.725Z,89.05
2017-12-26T04:25:25.491Z,88.84
2017-12-26T04:27:53.277Z,89.22
2017-12-26T04:30:23.966Z,88.52
2017-12-26T04:32:51.942Z,89.40
2017-12-26T04:35:21.043Z,89.77
2017-12-26T04:37:48.770Z,90.64
2017-12-26T04:40:17.385Z,91.44
2017-12-26T04:42:47.325Z,92.16
2017-12-26T04:45:15.210Z,92.46
2017-12-26T04:47:43.878Z,92.68
2017-12-26T04:50:13.703Z,92.06
2017-12-26T04:52:42.042Z,91.73
2017-12-26T04:55:09.749Z,92.12
2017-12-26T04:57:38.320Z,92.90
2017-12-26T05:00:06.205Z,93.31
2017-12-26T05:02:33.895Z,93.69
2017-12-26T05:05:01.607Z,93.55
2017-12-26T05:07:29.379Z,93.17
2017-12-26T05:09:59.973Z,92.70
2017-12-26T05:12:27.647Z,92.59
2017-12-26T05:14:55.400Z,92.84
2017-12-26T05:17:23.812Z,92.37
2017-12-26T05:19:53.101Z,91.79
2017-12-26T05:22:20.809Z,91.39
2017-12-26T05:24:48.560Z,91.11
2017-12-26T05:27:16.404Z,91.17
2017-12-26T05:29:44.979Z,91.33
2017-12-26T05:32:12.829Z,91.63
2017-12-26T05:34:40.567Z,91.10
2017-12-26T05:37:08.289Z,90.69
2017-12-26T05:39:35.979Z,90.58
2017-12-26T05:42:03.726Z,90.17
2017-12-26T05:44:31.419Z,89.71
2017-12-26T05:47:00.316Z,88.88
2017-12-26T05:49:28.005Z,90.04
2017-12-26T05:51:55.689Z,90.63
2017-12-26T05:54:23.465Z,92.09
2017-12-26T05:56:51.221Z,92.84
2017-12-26T05:59:19.809Z,92.93
2017-12-26T06:01:47.655Z,92.23
2017-12-26T06:04:15.343Z,90.60
2017-12-26T06:06:43.069Z,90.38
2017-12-26T06:09:11.447Z,90.74
2017-12-26T06:11:39.134Z,89.95
2017-12-26T06:14:10.647Z,89.57
2017-12-26T06:16:39.514Z,89.52
2017-12-26T06:19:07.201Z,89.61
2017-12-26T06:21:34.940Z,89.75
2017-12-26T06:24:02.701Z,90.14
2017-12-26T06:26:33.209Z,90.18
2017-12-26T06:29:01.971Z,90.37
2017-12-26T06:31:29.720Z,90.52
2017-12-26T06:33:57.538Z,90.23
2017-12-26T06:36:25.298Z,89.47
2017-12-26T06:38:53.007Z,89.79
2017-12-26T06:41:20.768Z,89.50
2017-12-26T06:43:48.500Z,89.41
2017-12-26T06:46:16.267Z,89.35
2017-12-26T06:48:44.965Z,89.73
2017-12-26T06:51:12.780Z,90.76
2017-12-26T06:53:40.519Z,91.05
2017-12-26T06:56:09.185Z,91.80
2017-12-26T06:58:37.811Z,91.91
2017-12-26T07:01:05.554Z,92.54
2017-12-26T07:03:33.259Z,92.83
2017-12-26T07:06:01.045Z,93.11
2017-12-26T07:08:28.821Z,92.89
2017-12-26T07:10:56.555Z,92.15
2017-12-26T07:13:24.516Z,90.93
2017-12-26T07:15:52.281Z,90.44
2017-12-26T07:18:20.037Z,90.04
2017-12-26T07:20:53.355Z,90.41
2017-12-26T07:23:21.169Z,89.89
2017-12-26T07:25:48.871Z,89.76
2017-12-26T07:28:17.369Z,89.45
2017-12-26T07:30:46.345Z,89.66
2017-12-26T07:33:14.102Z,89.50
2017-12-26T07:35:41.884Z,89.07
2017-12-26T07:38:09.653Z,89.42
2017-12-26T07:40:38.006Z,89.17
2017-12-26T07:43:05.997Z,89.46
2017-12-26T07:45:33.725Z,90.69
2017-12-26T07:48:02.528Z,91.48
2017-12-26T07:50:30.303Z,92.10
2017-12-26T07:52:58.064Z,92.07
2017-12-26T07:55:25.822Z,91.83
2017-12-26T07:57:53.550Z,91.98
2017-12-26T08:00:21.324Z,92.00
2017-12-26T08:02:49.129Z,91.60
2017-12-26T08:05:16.987Z,91.05
2017-12-26T08:07:44.688Z,90.77
2017-12-26T08:10:12.566Z,90.79
2017-12-26T08:12:40.270Z,91.18
2017-12-26T08:15:08.048Z,91.37
2017-12-26T08:17:35.838Z,91.05
2017-12-26T08:20:05.057Z,91.50
2017-12-26T08:22:33.029Z,91.80
2017-12-26T08:25:00.831Z,91.54
2017-12-26T08:27:29.325Z,91.52
2017-12-26T08:29:57.036Z,90.65
2017-12-26T08:32:24.844Z,89.52
2017-12-26T08:34:52.580Z,90.40
2017-12-26T08:37:20.354Z,90.27
2017-12-26T08:39:48.079Z,89.72
2017-12-26T08:42:15.843Z,88.94
2017-12-26T08:44:43.674Z,88.91
2017-12-26T08:47:11.956Z,88.40
2017-12-26T08:49:39.699Z,89.10
2017-12-26T08:52:07.426Z,89.00
2017-12-26T08:54:35.226Z,89.09
2017-12-26T08:57:03.032Z,88.26
2017-12-26T08:59:30.799Z,87.36
2017-12-26T09:01:58.561Z,86.56
2017-12-26T09:04:26.393Z,84.93
2017-12-26T09:06:54.232Z,82.35
2017-12-26T09:09:22.008Z,83.33
2017-12-26T09:11:49.750Z,81.88
2017-12-26T09:14:17.499Z,80.75
2017-12-26T09:16:45.437Z,80.46
2017-12-26T09:19:13.184Z,78.82
2017-12-26T09:21:40.966Z,77.03
2017-12-26T09:24:08.689Z,77.31
2017-12-26T09:26:36.528Z,80.56
2017-12-26T09:29:04.228Z,82.61
2017-12-26T09:31:32.163Z,82.29
2017-12-26T09:34:00.864Z,82.13
2017-12-26T09:36:28.833Z,84.20
2017-12-26T09:38:56.777Z,84.69
2017-12-26T09:41:24.592Z,83.84
2017-12-26T09:43:52.578Z,82.23
2017-12-26T09:46:20.784Z,81.81
2017-12-26T09:48:48.794Z,83.31
2017-12-26T09:51:16.918Z,81.94
2017-12-26T09:53:44.991Z,81.08
2017-12-26T09:56:14.008Z,80.92
2017-12-26T09:58:41.836Z,79.47
2017-12-26T10:01:09.572Z,79.31
2017-12-26T10:03:37.372Z,78.61
2017-12-26T10:06:06.140Z,79.58
2017-12-26T10:08:33.907Z,80.02
2017-12-26T10:11:01.717Z,79.31
2017-12-26T10:13:29.483Z,78.67
2017-12-26T10:15:57.196Z,78.15
2017-12-26T10:18:24.965Z,77.13
2017-12-26T10:20:53.732Z,78.18
2017-12-26T10:23:21.537Z,77.14
2017-12-26T10:25:49.482Z,73.19
2017-12-26T10:28:17.378Z,73.16
2017-12-26T10:30:45.176Z,72.91
2017-12-26T10:33:13.010Z,71.23
2017-12-26T10:35:40.798Z,70.00
2017-12-26T10:38:08.662Z,70.35
2017-12-26T10:40:36.468Z,72.10
2017-12-26T10:43:04.246Z,73.41
2017-12-26T10:45:32.026Z,71.94
2017-12-26T10:47:59.790Z,68.75
2017-12-26T10:50:27.578Z,70.43
2017-12-26T10:52:55.655Z,70.26
2017-12-26T10:55:23.427Z,70.03
2017-12-26T10:57:51.137Z,68.80
2017-12-26T11:00:19.034Z,68.32
2017-12-26T11:02:46.762Z,67.52
2017-12-26T11:05:14.467Z,69.82
2017-12-26T11:07:42.408Z,68.41
2017-12-26T11:10:10.525Z,68.68
2017-12-26T11:12:38.346Z,72.14
2017-12-26T11:15:06.125Z,72.01
2017-12-26T11:17:36.249Z,73.02
2017-12-26T11:20:04.046Z,71.88
2017-12-26T11:22:31.776Z,71.22
2017-12-26T11:24:59.551Z,71.23
2017-12-26T11:27:27.288Z,70.66
2017-12-26T11:29:55.052Z,68.61
2017-12-26T11:32:22.802Z,67.01
2017-12-26T11:34:50.557Z,68.56
2017-12-26T11:37:18.477Z,66.66
2017-12-26T11:39:46.223Z,68.38
2017-12-26T11:42:14.033Z,68.79
2017-12-26T11:44:41.795Z,70.42
2017-12-26T11:47:09.571Z,71.72
2017-12-26T11:49:37.322Z,71.38
2017-12-26T11:52:05.056Z,69.40
2017-12-26T11:54:32.858Z,68.34
2017-12-26T11:57:00.597Z,68.76
2017-12-26T11:59:28.414Z,68.58
2017-12-26T12:01:56.149Z,70.00
2017-12-26T12:04:23.858Z,70.53
2017-12-26T12:06:51.626Z,70.54
2017-12-26T12:09:19.641Z,71.55
2017-12-26T12:11:47.344Z,71.91
2017-12-26T12:14:15.128Z,71.96
2017-12-26T12:16:42.926Z,69.66
2017-12-26T12:19:10.632Z,67.52
2017-12-26T12:21:38.399Z,69.82
2017-12-26T12:24:07.340Z,71.39
2017-12-26T12:26:35.050Z,70.54
2017-12-26T12:29:02.859Z,69.26
2017-12-26T12:31:30.564Z,71.44
2017-12-26T12:33:58.322Z,72.31
2017-12-26T12:36:26.100Z,73.03
2017-12-26T12:38:53.998Z,71.79
2017-12-26T12:41:21.824Z,73.81
2017-12-26T12:43:49.677Z,75.44
2017-12-26T12:46:18.280Z,74.30
2017-12-26T12:48:46.040Z,74.43
2017-12-26T12:51:14.185Z,75.60
2017-12-26T12:53:41.979Z,76.91
2017-12-26T12:56:09.771Z,75.21
2017-12-26T12:58:37.570Z,75.40
2017-12-26T13:01:05.388Z,73.36
2017-12-26T13:03:33.147Z,73.03
2017-12-26T13:06:00.914Z,73.57
2017-12-26T13:08:28.754Z,75.12
2017-12-26T13:10:56.626Z,75.97
2017-12-26T13:13:24.376Z,76.54
2017-12-26T13:15:52.155Z,76.62
2017-12-26T13:18:21.476Z,76.38
2017-12-26T13:20:49.426Z,77.19
2017-12-26T13:23:17.255Z,78.09
2017-12-26T13:25:45.070Z,77.58
2017-12-26T13:28:12.770Z,77.92
2017-12-26T13:30:40.600Z,77.98
2017-12-26T13:33:08.483Z,78.17
2017-12-26T13:35:36.260Z,78.45
2017-12-26T13:38:04.115Z,76.39
2017-12-26T13:40:31.950Z,75.30
2017-12-26T13:43:00.340Z,74.94
2017-12-26T13:45:28.118Z,75.84
2017-12-26T13:47:55.983Z,75.92
2017-12-26T13:50:23.776Z,76.98
2017-12-26T13:52:51.517Z,76.30
2017-12-26T13:55:19.374Z,77.40
2017-12-26T13:57:47.155Z,79.13
2017-12-26T14:00:14.928Z,80.18
2017-12-26T14:02:42.790Z,80.12
2017-12-26T14:05:10.576Z,81.02
2017-12-26T14:07:38.424Z,80.82
2017-12-26T14:10:06.148Z,79.23
2017-12-26T14:12:34.006Z,79.56
2017-12-26T14:15:01.816Z,78.67
2017-12-26T14:17:29.513Z,78.10
2017-12-26T14:19:57.280Z,77.77
2017-12-26T14:22:25.076Z,77.76
2017-12-26T14:24:52.796Z,77.90
2017-12-26T14:27:20.535Z,78.85
2017-12-26T14:29:48.344Z,78.95
2017-12-26T14:32:17.217Z,78.75
2017-12-26T14:34:44.955Z,79.27
2017-12-26T14:37:12.754Z,79.24
2017-12-26T14:39:40.491Z,79.41
2017-12-26T14:42:08.283Z,79.69
2017-12-26T14:44:36.477Z,80.81
2017-12-26T14:47:04.200Z,82.08
2017-12-26T14:49:31.938Z,81.19
2017-12-26T14:51:59.880Z,81.38
2017-12-26T14:54:27.765Z,81.82
2017-12-26T14:56:55.534Z,81.23
2017-12-26T14:59:23.420Z,81.03
2017-12-26T15:01:51.243Z,80.85
2017-12-26T15:04:19.029Z,81.12
2017-12-26T15:06:46.802Z,81.34
2017-12-26T15:09:14.668Z,80.83
2017-12-26T15:11:42.528Z,80.49
2017-12-26T15:14:11.300Z,80.87
2017-12-26T15:16:39.198Z,80.73
2017-12-26T15:19:06.976Z,80.35
2017-12-26T15:21:34.731Z,80.25
2017-12-26T15:24:02.580Z,80.75
2017-12-26T15:26:30.372Z,81.02
2017-12-26T15:28:58.121Z,81.59
2017-12-26T15:31:26.375Z,83.20
2017-12-26T15:33:54.168Z,82.37
2017-12-26T15:36:21.965Z,82.85
2017-12-26T15:38:49.809Z,82.51
2017-12-26T15:41:17.527Z,81.32
2017-12-26T15:43:45.539Z,82.11
2017-12-26T15:46:13.348Z,82.78
2017-12-26T15:48:42.029Z,81.98
2017-12-26T15:51:09.821Z,81.75
2017-12-26T15:53:37.629Z,82.09
2017-12-26T15:56:05.399Z,81.31
2017-12-26T15:58:33.843Z,81.65
2017-12-26T16:01:01.858Z,83.22
2017-12-26T16:03:29.755Z,82.28
2017-12-26T16:05:58.178Z,82.28
2017-12-26T16:08:26.088Z,82.19
2017-12-26T16:10:53.864Z,83.18
2017-12-26T16:13:21.872Z,83.43
2017-12-26T16:15:50.951Z,84.71
2017-12-26T16:18:18.865Z,84.21
2017-12-26T16:20:46.677Z,83.64
2017-12-26T16:23:14.665Z,84.83
2017-12-26T16:25:42.525Z,84.60
2017-12-26T16:28:10.333Z,83.92
2017-12-26T16:30:38.086Z,83.93
2017-12-26T16:33:05.912Z,84.32
2017-12-26T16:35:33.712Z,84.23
2017-12-26T16:38:01.609Z,84.08
2017-12-26T16:40:29.333Z,85.35
2017-12-26T16:42:57.251Z,85.23
2017-12-26T16:45:25.077Z,84.10
2017-12-26T16:47:53.195Z,83.87
2017-12-26T16:50:21.306Z,83.36
2017-12-26T16:52:49.388Z,83.28
2017-12-26T16:55:17.285Z,83.14
2017-12-26T16:57:45.072Z,83.91
2017-12-26T17:00:12.892Z,83.56
2017-12-26T17:02:40.781Z,83.12
2017-12-26T17:05:08.562Z,83.46
2017-12-26T17:07:36.388Z,85.23
2017-12-26T17:10:04.252Z,86.10
2017-12-26T17:12:32.685Z,84.86
2017-12-26T17:15:01.941Z,84.70
2017-12-26T17:17:29.987Z,85.07
2017-12-26T17:19:57.800Z,85.04
2017-12-26T17:22:25.696Z,84.74
2017-12-26T17:24:53.585Z,85.15
2017-12-26T17:27:21.468Z,84.75
2017-12-26T17:29:49.915Z,84.57
2017-12-26T17:32:17.831Z,84.42
2017-12-26T17:34:45.867Z,85.05
2017-12-26T17:37:13.799Z,85.38
2017-12-26T17:39:41.779Z,85.67
2017-12-26T17:42:09.542Z,85.94
2017-12-26T17:44:37.717Z,86.82
2017-12-26T17:47:05.625Z,86.53
2017-12-26T17:49:34.656Z,87.28
2017-12-26T17:52:03.200Z,86.67
2017-12-26T17:54:31.201Z,86.16
2017-12-26T17:56:59.132Z,85.74
2017-12-26T17:59:27.037Z,85.43
2017-12-26T18:01:54.795Z,85.22
2017-12-26T18:04:22.715Z,85.67
2017-12-26T18:06:50.585Z,86.30
2017-12-26T18:09:18.395Z,86.51
2017-12-26T18:11:46.158Z,86.79
2017-12-26T18:14:13.914Z,87.12
2017-12-26T18:16:41.680Z,87.41
2017-12-26T18:19:09.605Z,87.93
2017-12-26T18:21:37.525Z,87.16
2017-12-26T18:24:05.456Z,86.57
2017-12-26T18:26:33.288Z,85.64
2017-12-26T18:29:01.097Z,85.17
2017-12-26T18:31:28.891Z,85.43
2017-12-26T18:33:56.641Z,85.04
2017-12-26T18:36:24.596Z,84.76
2017-12-26T18:38:52.378Z,85.12
2017-12-26T18:41:20.529Z,85.85
2017-12-26T18:43:48.333Z,86.15
2017-12-26T18:46:16.118Z,86.04
2017-12-26T18:48:44.936Z,86.90
2017-12-26T18:51:12.974Z,86.21
2017-12-26T18:53:40.809Z,85.35
2017-12-26T18:56:10.084Z,85.37
2017-12-26T18:58:37.873Z,86.24
2017-12-26T19:01:05.859Z,85.25
2017-12-26T19:03:34.800Z,84.45
2017-12-26T19:06:02.556Z,84.69
2017-12-26T19:08:30.399Z,85.16
2017-12-26T19:10:58.246Z,84.82
2017-12-26T19:13:26.124Z,86.74
2017-12-26T19:15:53.996Z,86.26
2017-12-26T19:18:21.922Z,85.82
2017-12-26T19:20:49.956Z,85.90
2017-12-26T19:23:17.911Z,85.81
2017-12-26T19:25:47.647Z,85.89
2017-12-26T19:28:16.235Z,86.33
2017-12-26T19:30:45.058Z,86.19
2017-12-26T19:33:13.122Z,87.33
2017-12-26T19:35:40.925Z,87.33
2017-12-26T19:38:09.875Z,86.79
2017-12-26T19:40:37.626Z,86.14
2017-12-26T19:43:05.551Z,85.87
2017-12-26T19:45:33.737Z,85.71
2017-12-26T19:48:01.582Z,86.03
2017-12-26T19:50:29.556Z,86.25
2017-12-26T19:52:57.902Z,86.17
2017-12-26T19:55:26.097Z,86.17
2017-12-26T19:57:53.988Z,86.41
2017-12-26T20:00:23.071Z,87.42
2017-12-26T20:02:51.023Z,86.07
2017-12-26T20:05:19.089Z,86.08
2017-12-26T20:07:48.187Z,86.61
2017-12-26T20:10:16.536Z,85.85
2017-12-26T20:12:44.490Z,85.62
2017-12-26T20:15:12.405Z,86.78
2017-12-26T20:17:43.450Z,86.96
2017-12-26T20:20:11.283Z,86.69
2017-12-26T20:22:41.027Z,86.44
2017-12-26T20:25:09.415Z,85.47
2017-12-26T20:27:37.674Z,85.08
2017-12-26T20:30:06.393Z,85.10
2017-12-26T20:32:34.239Z,84.94
2017-12-26T20:35:02.214Z,86.12
2017-12-26T20:37:30.055Z,86.05
2017-12-26T20:39:59.058Z,86.26
2017-12-26T20:42:26.906Z,85.84
2017-12-26T20:44:54.679Z,86.52
2017-12-26T20:47:22.455Z,87.20
2017-12-26T20:49:50.185Z,87.48
2017-12-26T20:52:18.014Z,87.41
2017-12-26T20:54:46.340Z,87.46
2017-12-26T20:57:14.680Z,87.67
2017-12-26T20:59:42.587Z,88.14
2017-12-26T21:02:10.390Z,87.79
2017-12-26T21:04:38.152Z,86.81
2017-12-26T21:07:05.968Z,86.55
2017-12-26T21:09:34.613Z,87.69
2017-12-26T21:12:02.425Z,87.46
2017-12-26T21:14:30.203Z,87.50
2017-12-26T21:16:58.228Z,87.57
2017-12-26T21:19:26.021Z,87.18
2017-12-26T21:21:53.854Z,87.15
2017-12-26T21:24:21.679Z,87.16
2017-12-26T21:26:49.791Z,87.92
2017-12-26T21:29:17.645Z,87.83
2017-12-26T21:31:45.443Z,88.44
2017-12-26T21:34:13.235Z,88.06
2017-12-26T21:36:41.087Z,87.41
2017-12-26T21:39:08.941Z,86.92
2017-12-26T21:41:38.806Z,86.46
2017-12-26T21:44:06.592Z,86.55
2017-12-26T21:46:34.699Z,86.70
2017-12-26T21:49:02.613Z,86.91
2017-12-26T21:51:30.460Z,87.35
2017-12-26T21:53:58.171Z,87.52
2017-12-26T21:56:25.963Z,87.35
2017-12-26T21:58:53.721Z,87.79
2017-12-26T22:01:22.117Z,87.90
2017-12-26T22:03:49.848Z,86.36
2017-12-26T22:06:18.974Z,86.60
2017-12-26T22:08:47.298Z,86.94
2017-12-26T22:11:15.157Z,87.08
2017-12-26T22:13:42.929Z,87.72
2017-12-26T22:16:10.696Z,87.68
2017-12-26T22:18:38.461Z,88.09
2017-12-26T22:21:06.812Z,86.93
2017-12-26T22:23:34.574Z,86.04
2017-12-26T22:26:02.475Z,85.74
2017-12-26T22:28:30.449Z,86.32
2017-12-26T22:30:58.538Z,88.12
2017-12-26T22:33:26.402Z,87.77
2017-12-26T22:35:54.910Z,87.70
2017-12-26T22:38:22.637Z,87.10
2017-12-26T22:40:50.424Z,87.07
2017-12-26T22:43:18.147Z,87.83
2017-12-26T22:45:45.889Z,88.49
2017-12-26T22:48:13.745Z,87.30
2017-12-26T22:50:41.534Z,87.17
2017-12-26T22:53:09.763Z,86.81
2017-12-26T22:55:37.568Z,86.96
2017-12-26T22:58:05.323Z,88.14
2017-12-26T23:00:33.252Z,88.57
2017-12-26T23:03:01.161Z,87.99
2017-12-26T23:05:29.041Z,88.05
2017-12-26T23:07:57.765Z,88.17
2017-12-26T23:10:25.661Z,88.00
2017-12-26T23:12:53.569Z,87.71
2017-12-26T23:15:27.069Z,88.19
2017-12-26T23:18:00.493Z,87.79
2017-12-26T23:20:33.862Z,87.55
2017-12-26T23:23:07.260Z,88.15
2017-12-26T23:25:40.618Z,88.43
2017-12-26T23:28:13.982Z,87.59
2017-12-26T23:30:47.188Z,87.31
2017-12-26T23:33:20.545Z,87.29
2017-12-26T23:38:58.184Z,87.28
2017-12-26T23:41:31.504Z,87.10
2017-12-26T23:44:04.915Z,87.38
2017-12-26T23:46:38.956Z,87.80
2017-12-26T23:49:12.824Z,87.89
2017-12-26T23:51:46.304Z,87.95
2017-12-26T23:54:19.659Z,87.28
2017-12-26T23:56:53.090Z,87.76
2017-12-26T23:59:26.353Z,87.41
